createdAt,value
2022-09-22T05:32:22.531Z,5.20
2022-09-22T05:35:25.257Z,5.20
2022-09-22T05:38:29.730Z,5.10
2022-09-22T05:41:31.492Z,5.30
2022-09-22T05:44:33.213Z,5.40
2022-09-22T05:47:35.134Z,5.50
2022-09-22T05:50:37.280Z,5.70
2022-09-22T05:53:39.100Z,6.20
2022-09-22T05:56:40.798Z,6.80
2022-09-22T05:59:42.782Z,7.30
2022-09-22T06:02:45.267Z,7.80
2022-09-22T06:05:47.146Z,8.30
2022-09-22T06:08:49.396Z,9.30
2022-09-22T06:11:51.687Z,10.60
2022-09-22T06:49:42.227Z,9.60
2022-09-22T06:52:44.311Z,9.70
2022-09-22T06:55:47.051Z,10.00
2022-09-22T06:59:08.743Z,10.50
2022-09-22T07:02:11.186Z,11.00
2022-09-22T07:05:18.654Z,11.50
2022-09-22T07:08:22.136Z,11.70
2022-09-22T07:11:24.157Z,11.90
2022-09-22T07:14:26.583Z,12.10
2022-09-22T07:17:32.685Z,12.80
2022-09-22T07:20:35.949Z,14.10
2022-09-22T07:23:38.560Z,15.60
2022-09-22T07:26:40.928Z,16.90
2022-09-22T07:29:44.338Z,17.50
2022-09-22T07:32:46.443Z,18.90
2022-09-22T07:35:48.440Z,19.50
2022-09-22T07:38:52.299Z,19.50
2022-09-22T07:41:54.108Z,19.50
2022-09-22T07:45:15.847Z,18.60
2022-09-22T07:48:37.659Z,18.30
2022-09-22T07:51:39.614Z,18.90
2022-09-22T07:54:41.861Z,18.50
2022-09-22T07:57:43.725Z,19.20
2022-09-22T08:00:45.832Z,20.50
2022-09-22T08:03:48.117Z,20.70
2022-09-22T08:06:55.311Z,20.50
2022-09-22T08:10:00.982Z,21.40
2022-09-22T08:13:05.043Z,21.40
2022-09-22T08:16:07.766Z,19.70
2022-09-22T08:19:14.129Z,20.60
2022-09-22T08:22:18.091Z,21.90
2022-09-22T08:25:20.056Z,22.80
2022-09-22T08:28:22.068Z,22.90
2022-09-22T08:31:26.647Z,22.10
2022-09-22T08:34:30.171Z,21.50
2022-09-22T08:37:32.513Z,21.70
2022-09-22T08:40:35.990Z,22.10
2022-09-22T08:43:45.552Z,22.10
2022-09-22T08:46:48.072Z,20.50
2022-09-22T08:50:12.090Z,20.50
2022-09-22T08:53:18.192Z,20.60
2022-09-22T08:56:41.748Z,20.50
2022-09-22T08:59:56.301Z,20.70
2022-09-22T09:03:23.738Z,21.10
2022-09-22T09:06:55.127Z,21.00
2022-09-22T09:10:24.429Z,22.00
2022-09-22T09:13:54.876Z,21.30
2022-09-22T09:17:03.973Z,22.30
2022-09-22T09:20:19.582Z,23.20
2022-09-22T09:25:22.039Z,24.30
2022-09-22T09:26:52.335Z,25.10
2022-09-22T09:30:21.522Z,25.00
2022-09-22T09:33:36.772Z,23.90
2022-09-22T09:36:42.090Z,22.70
2022-09-22T09:39:46.332Z,21.50
2022-09-22T09:42:58.671Z,22.00
2022-09-22T09:46:34.554Z,21.90
2022-09-22T09:49:36.825Z,22.50
2022-09-22T09:52:39.348Z,23.00
2022-09-22T09:55:41.459Z,23.90
2022-09-22T09:59:21.664Z,24.60
2022-09-22T10:02:29.820Z,24.00
2022-09-22T10:05:35.849Z,24.20
2022-09-22T10:08:46.908Z,23.90
2022-09-22T10:11:59.563Z,24.00
2022-09-22T10:15:02.524Z,24.40
2022-09-22T10:18:25.561Z,22.90
2022-09-22T10:21:28.307Z,21.90
2022-09-22T10:24:32.913Z,21.90
2022-09-22T10:27:35.333Z,21.30
2022-09-22T10:30:37.852Z,20.70
2022-09-22T10:33:54.765Z,21.10
2022-09-22T10:36:57.884Z,21.10
2022-09-22T10:40:03.570Z,21.00
2022-09-22T10:43:13.152Z,22.10
2022-09-22T10:46:41.756Z,22.00
2022-09-22T10:50:15.174Z,21.70
2022-09-22T10:53:35.404Z,21.90
2022-09-22T10:56:42.013Z,22.00
2022-09-22T11:00:14.995Z,21.60
2022-09-22T11:03:56.852Z,21.20
2022-09-22T11:07:45.294Z,20.90
2022-09-22T11:11:23.908Z,20.90
2022-09-22T11:14:46.919Z,20.10
2022-09-22T11:18:26.768Z,19.40
2022-09-22T11:22:04.090Z,19.70
2022-09-22T11:25:45.390Z,19.90
2022-09-22T11:29:26.924Z,20.00
2022-09-22T11:32:43.658Z,20.20
2022-09-22T11:36:25.184Z,20.20
2022-09-22T11:39:50.186Z,19.50
2022-09-22T11:43:21.009Z,18.50
2022-09-22T11:46:36.330Z,18.20
2022-09-22T11:50:15.671Z,18.20
2022-09-22T11:53:35.325Z,18.10
2022-09-22T11:56:44.013Z,17.50
2022-09-22T11:59:53.489Z,17.70
2022-09-22T12:03:02.732Z,17.40
2022-09-22T12:06:08.669Z,17.10
2022-09-22T12:09:20.138Z,16.90
2022-09-22T12:12:24.142Z,17.10
2022-09-22T12:15:35.289Z,17.40
2022-09-22T12:19:00.591Z,17.50
2022-09-22T12:22:13.854Z,17.40
2022-09-22T12:25:48.005Z,17.30
2022-09-22T12:28:51.069Z,17.20
2022-09-22T12:31:56.181Z,17.40
2022-09-22T12:35:00.339Z,17.50
2022-09-22T12:38:02.837Z,17.50
2022-09-22T12:41:10.025Z,17.50
2022-09-22T12:44:18.443Z,17.40
2022-09-22T12:47:32.195Z,17.70
2022-09-22T12:50:39.956Z,17.60
2022-09-22T12:53:43.843Z,17.60
2022-09-22T12:56:53.978Z,17.60
2022-09-22T13:00:21.103Z,17.40
2022-09-22T13:03:26.444Z,17.30
2022-09-22T13:06:28.242Z,17.40
2022-09-22T13:09:30.575Z,17.30
2022-09-22T13:12:32.340Z,17.40
2022-09-22T13:15:49.529Z,17.30
2022-09-22T13:18:52.782Z,17.30
2022-09-22T13:21:54.437Z,17.30
2022-09-22T13:24:56.098Z,17.20
2022-09-22T13:28:20.088Z,17.20
2022-09-22T13:31:21.798Z,17.30
2022-09-22T13:34:30.232Z,17.40
2022-09-22T13:37:41.112Z,17.40
2022-09-22T13:40:49.745Z,17.40
2022-09-22T13:43:57.743Z,17.20
2022-09-22T13:47:02.888Z,17.30
2022-09-22T13:50:08.128Z,17.40
2022-09-22T13:53:09.836Z,17.30
2022-09-22T13:56:20.825Z,17.30
2022-09-22T13:59:26.065Z,17.30
2022-09-22T14:02:31.828Z,17.40
2022-09-22T14:05:35.603Z,17.50
2022-09-22T14:08:37.857Z,17.30
2022-09-22T14:11:39.597Z,17.40
2022-09-22T14:14:41.724Z,17.50
2022-09-22T14:17:44.722Z,17.70
2022-09-22T14:20:47.199Z,17.80
2022-09-22T14:23:51.202Z,17.70
2022-09-22T14:27:03.088Z,17.70
2022-09-22T14:30:06.829Z,17.70
2022-09-22T14:33:18.287Z,17.60
2022-09-22T14:36:22.922Z,17.40
2022-09-22T14:39:34.018Z,17.40
2022-09-22T14:42:37.133Z,17.40
2022-09-22T14:45:57.764Z,17.30
2022-09-22T14:49:22.773Z,17.30
2022-09-22T14:52:28.747Z,17.40
2022-09-22T14:55:41.180Z,17.50
2022-09-22T14:58:48.691Z,17.40
2022-09-22T15:02:11.087Z,17.40
2022-09-22T15:05:29.356Z,17.40
2022-09-22T15:08:31.879Z,17.30
2022-09-22T15:11:56.394Z,17.30
2022-09-22T15:14:59.980Z,17.30
2022-09-22T15:18:19.167Z,17.40
2022-09-22T15:21:28.998Z,17.30
2022-09-22T15:24:31.041Z,17.20
2022-09-22T15:27:32.734Z,17.20
2022-09-22T15:30:34.377Z,17.10
2022-09-22T15:33:36.114Z,17.10
2022-09-22T15:36:44.094Z,17.20
2022-09-22T15:39:45.977Z,17.20
2022-09-22T15:43:11.316Z,17.30
2022-09-22T15:46:35.099Z,17.20
2022-09-22T15:49:37.015Z,17.10
2022-09-22T15:52:38.697Z,17.00
2022-09-22T15:55:40.355Z,17.00
2022-09-22T15:58:43.710Z,16.90
